sensor_id;sensor_type;location;lat;lon;timestamp;pressure;altitude;pressure_sealevel;temperature;humidity
38718;BME280;24468;52.128;9.278;2023-08-24T00:01:20;100997.66;;;17.83;100.00
38718;BME280;24468;52.128;9.278;2023-08-24T00:03:45;100995.56;;;17.87;100.00
38718;BME280;24468;52.128;9.278;2023-08-24T00:06:12;100997.66;;;17.83;100.00
38718;BME280;24468;52.128;9.278;2023-08-24T00:08:37;101013.19;;;17.95;100.00
38718;BME280;24468;52.128;9.278;2023-08-24T00:11:03;101012.94;;;17.86;100.00
38718;BME280;24468;52.128;9.278;2023-08-24T00:13:29;101007.28;;;18.02;100.00
38718;BME280;24468;52.128;9.278;2023-08-24T00:15:55;101014.13;;;17.82;100.00
38718;BME280;24468;52.128;9.278;2023-08-24T00:18:21;101007.06;;;17.92;100.00
38718;BME280;24468;52.128;9.278;2023-08-24T00:20:48;101007.88;;;17.80;100.00
38718;BME280;24468;52.128;9.278;2023-08-24T00:23:14;101009.13;;;17.88;100.00
38718;BME280;24468;52.128;9.278;2023-08-24T00:25:39;100993.84;;;17.86;100.00
38718;BME280;24468;52.128;9.278;2023-08-24T00:28:08;100999.78;;;17.78;100.00
38718;BME280;24468;52.128;9.278;2023-08-24T00:30:33;101006.50;;;17.87;100.00
38718;BME280;24468;52.128;9.278;2023-08-24T00:32:59;100998.75;;;17.93;100.00
38718;BME280;24468;52.128;9.278;2023-08-24T00:35:25;101001.94;;;17.73;100.00
38718;BME280;24468;52.128;9.278;2023-08-24T00:37:51;100983.66;;;17.88;100.00
38718;BME280;24468;52.128;9.278;2023-08-24T00:40:16;100983.72;;;18.00;100.00
38718;BME280;24468;52.128;9.278;2023-08-24T00:42:44;100977.38;;;18.00;100.00
38718;BME280;24468;52.128;9.278;2023-08-24T00:45:12;100973.66;;;18.01;100.00
38718;BME280;24468;52.128;9.278;2023-08-24T00:47:44;100967.28;;;17.88;100.00
38718;BME280;24468;52.128;9.278;2023-08-24T00:50:11;100963.25;;;17.93;100.00
38718;BME280;24468;52.128;9.278;2023-08-24T00:52:40;100963.19;;;17.95;100.00
38718;BME280;24468;52.128;9.278;2023-08-24T00:55:07;100967.28;;;17.88;100.00
38718;BME280;24468;52.128;9.278;2023-08-24T00:57:33;100967.97;;;17.64;100.00
38718;BME280;24468;52.128;9.278;2023-08-24T01:00:04;100966.72;;;17.55;100.00
38718;BME280;24468;52.128;9.278;2023-08-24T01:02:38;100968.09;;;17.48;100.00
38718;BME280;24468;52.128;9.278;2023-08-24T01:05:04;100970.34;;;17.83;100.00
38718;BME280;24468;52.128;9.278;2023-08-24T01:07:34;100973.59;;;17.34;100.00
38718;BME280;24468;52.128;9.278;2023-08-24T01:10:03;100980.56;;;17.52;100.00
38718;BME280;24468;52.128;9.278;2023-08-24T01:12:50;100967.38;;;17.59;100.00
38718;BME280;24468;52.128;9.278;2023-08-24T01:15:45;100959.97;;;17.61;100.00
38718;BME280;24468;52.128;9.278;2023-08-24T01:18:15;100962.06;;;17.70;100.00
38718;BME280;24468;52.128;9.278;2023-08-24T01:20:43;100958.75;;;17.80;100.00
38718;BME280;24468;52.128;9.278;2023-08-24T01:26:14;100975.34;;;17.35;100.00
38718;BME280;24468;52.128;9.278;2023-08-24T01:28:43;100973.72;;;17.18;100.00
38718;BME280;24468;52.128;9.278;2023-08-24T01:31:09;100971.19;;;17.15;100.00
38718;BME280;24468;52.128;9.278;2023-08-24T01:33:35;100976.16;;;17.23;100.00
38718;BME280;24468;52.128;9.278;2023-08-24T01:36:00;100973.47;;;17.36;100.00
38718;BME280;24468;52.128;9.278;2023-08-24T01:38:27;100979.03;;;16.93;100.00
38718;BME280;24468;52.128;9.278;2023-08-24T01:43:33;100975.81;;;17.00;100.00
38718;BME280;24468;52.128;9.278;2023-08-24T01:46:04;100971.91;;;17.04;100.00
38718;BME280;24468;52.128;9.278;2023-08-24T01:48:31;100974.78;;;17.16;100.00
38718;BME280;24468;52.128;9.278;2023-08-24T01:50:58;100971.78;;;17.20;100.00
38718;BME280;24468;52.128;9.278;2023-08-24T01:53:27;100966.72;;;17.14;100.00
38718;BME280;24468;52.128;9.278;2023-08-24T01:55:53;100971.56;;;17.23;100.00
38718;BME280;24468;52.128;9.278;2023-08-24T01:58:19;100970.41;;;17.13;100.00
38718;BME280;24468;52.128;9.278;2023-08-24T02:00:44;100965.66;;;17.02;100.00
38718;BME280;24468;52.128;9.278;2023-08-24T02:03:10;100963.22;;;17.12;100.00
38718;BME280;24468;52.128;9.278;2023-08-24T02:05:36;100955.91;;;17.13;100.00
38718;BME280;24468;52.128;9.278;2023-08-24T02:08:01;100958.72;;;17.11;100.00
38718;BME280;24468;52.128;9.278;2023-08-24T02:10:27;100958.47;;;17.01;100.00
38718;BME280;24468;52.128;9.278;2023-08-24T02:12:52;100955.13;;;17.10;100.00
38718;BME280;24468;52.128;9.278;2023-08-24T02:15:18;100955.06;;;16.98;100.00
38718;BME280;24468;52.128;9.278;2023-08-24T02:17:43;100945.81;;;17.00;100.00
38718;BME280;24468;52.128;9.278;2023-08-24T02:20:11;100940.53;;;17.11;100.00
38718;BME280;24468;52.128;9.278;2023-08-24T02:22:39;100940.72;;;17.08;100.00
38718;BME280;24468;52.128;9.278;2023-08-24T02:25:05;100942.59;;;16.94;100.00
38718;BME280;24468;52.128;9.278;2023-08-24T02:27:32;100935.78;;;17.01;100.00
38718;BME280;24468;52.128;9.278;2023-08-24T02:29:58;100930.34;;;17.01;100.00
38718;BME280;24468;52.128;9.278;2023-08-24T02:32:24;100921.63;;;17.08;100.00
38718;BME280;24468;52.128;9.278;2023-08-24T02:34:49;100923.66;;;17.19;100.00
38718;BME280;24468;52.128;9.278;2023-08-24T02:37:15;100914.16;;;17.12;100.00
38718;BME280;24468;52.128;9.278;2023-08-24T02:39:40;100912.59;;;17.08;100.00
38718;BME280;24468;52.128;9.278;2023-08-24T02:42:06;100911.63;;;17.09;100.00
38718;BME280;24468;52.128;9.278;2023-08-24T02:44:31;100902.50;;;16.67;100.00
38718;BME280;24468;52.128;9.278;2023-08-24T02:46:57;100898.41;;;16.74;100.00
38718;BME280;24468;52.128;9.278;2023-08-24T02:49:23;100902.09;;;16.59;100.00
38718;BME280;24468;52.128;9.278;2023-08-24T02:51:48;100914.84;;;16.44;100.00
38718;BME280;24468;52.128;9.278;2023-08-24T02:54:14;100912.59;;;16.51;100.00
38718;BME280;24468;52.128;9.278;2023-08-24T02:56:39;100906.56;;;17.17;100.00
38718;BME280;24468;52.128;9.278;2023-08-24T02:59:06;100912.66;;;17.21;100.00
38718;BME280;24468;52.128;9.278;2023-08-24T03:01:31;100920.50;;;17.40;100.00
38718;BME280;24468;52.128;9.278;2023-08-24T03:03:57;100916.91;;;18.44;100.00
38718;BME280;24468;52.128;9.278;2023-08-24T03:06:23;100910.91;;;18.14;100.00
38718;BME280;24468;52.128;9.278;2023-08-24T03:08:51;100911.19;;;17.84;100.00
38718;BME280;24468;52.128;9.278;2023-08-24T03:11:17;100912.88;;;17.72;100.00
38718;BME280;24468;52.128;9.278;2023-08-24T03:13:42;100913.75;;;17.45;100.00
38718;BME280;24468;52.128;9.278;2023-08-24T03:16:08;100907.56;;;17.29;100.00
38718;BME280;24468;52.128;9.278;2023-08-24T03:18:34;100909.22;;;17.31;100.00
38718;BME280;24468;52.128;9.278;2023-08-24T03:21:00;100908.16;;;17.34;100.00
38718;BME280;24468;52.128;9.278;2023-08-24T03:23:26;100915.88;;;17.13;100.00
38718;BME280;24468;52.128;9.278;2023-08-24T03:25:52;100918.56;;;17.00;100.00
38718;BME280;24468;52.128;9.278;2023-08-24T03:28:17;100922.53;;;16.95;100.00
38718;BME280;24468;52.128;9.278;2023-08-24T03:30:49;100917.97;;;16.66;100.00
38718;BME280;24468;52.128;9.278;2023-08-24T03:33:15;100921.06;;;16.75;100.00
38718;BME280;24468;52.128;9.278;2023-08-24T03:35:41;100917.59;;;16.87;100.00
38718;BME280;24468;52.128;9.278;2023-08-24T03:38:07;100910.88;;;16.93;100.00
38718;BME280;24468;52.128;9.278;2023-08-24T03:40:33;100907.09;;;16.95;100.00
38718;BME280;24468;52.128;9.278;2023-08-24T03:42:58;100913.97;;;16.86;100.00
38718;BME280;24468;52.128;9.278;2023-08-24T03:45:24;100908.38;;;16.89;100.00
38718;BME280;24468;52.128;9.278;2023-08-24T03:47:50;100916.91;;;16.83;100.00
38718;BME280;24468;52.128;9.278;2023-08-24T03:50:16;100918.28;;;16.91;100.00
38718;BME280;24468;52.128;9.278;2023-08-24T03:52:42;100930.91;;;16.63;100.00
38718;BME280;24468;52.128;9.278;2023-08-24T03:55:08;100940.34;;;16.57;100.00
38718;BME280;24468;52.128;9.278;2023-08-24T03:57:34;100934.38;;;16.22;100.00
38718;BME280;24468;52.128;9.278;2023-08-24T03:59:59;100938.69;;;16.40;100.00
38718;BME280;24468;52.128;9.278;2023-08-24T04:02:25;100939.19;;;16.76;100.00
38718;BME280;24468;52.128;9.278;2023-08-24T04:04:52;100937.50;;;16.59;100.00
38718;BME280;24468;52.128;9.278;2023-08-24T04:07:18;100933.84;;;16.60;100.00
38718;BME280;24468;52.128;9.278;2023-08-24T04:09:43;100935.88;;;16.71;100.00
38718;BME280;24468;52.128;9.278;2023-08-24T04:12:10;100933.81;;;16.74;100.00
38718;BME280;24468;52.128;9.278;2023-08-24T04:14:36;100919.84;;;16.52;100.00
38718;BME280;24468;52.128;9.278;2023-08-24T04:17:01;100925.75;;;16.58;100.00
38718;BME280;24468;52.128;9.278;2023-08-24T04:19:27;100922.56;;;16.52;100.00
38718;BME280;24468;52.128;9.278;2023-08-24T04:21:52;100933.03;;;16.72;100.00
38718;BME280;24468;52.128;9.278;2023-08-24T04:24:18;100942.00;;;17.03;100.00
38718;BME280;24468;52.128;9.278;2023-08-24T04:26:43;100945.25;;;16.95;100.00
38718;BME280;24468;52.128;9.278;2023-08-24T04:29:09;100941.06;;;16.89;100.00
38718;BME280;24468;52.128;9.278;2023-08-24T04:31:34;100950.09;;;16.76;100.00
38718;BME280;24468;52.128;9.278;2023-08-24T04:34:00;100959.50;;;16.70;100.00
38718;BME280;24468;52.128;9.278;2023-08-24T04:36:26;100954.38;;;16.94;100.00
38718;BME280;24468;52.128;9.278;2023-08-24T04:38:51;100942.28;;;16.70;100.00
38718;BME280;24468;52.128;9.278;2023-08-24T04:41:17;100938.59;;;16.71;100.00
38718;BME280;24468;52.128;9.278;2023-08-24T04:43:42;100927.63;;;17.01;100.00
38718;BME280;24468;52.128;9.278;2023-08-24T04:46:08;100934.97;;;17.13;100.00
38718;BME280;24468;52.128;9.278;2023-08-24T04:48:34;100936.75;;;17.14;100.00
38718;BME280;24468;52.128;9.278;2023-08-24T04:51:01;100924.06;;;17.13;100.00
38718;BME280;24468;52.128;9.278;2023-08-24T04:53:27;100925.94;;;17.13;100.00
38718;BME280;24468;52.128;9.278;2023-08-24T04:55:53;100924.44;;;17.21;100.00
38718;BME280;24468;52.128;9.278;2023-08-24T04:58:18;100924.66;;;17.18;100.00
38718;BME280;24468;52.128;9.278;2023-08-24T05:00:44;100921.06;;;17.45;100.00
38718;BME280;24468;52.128;9.278;2023-08-24T05:03:10;100919.41;;;17.42;100.00
38718;BME280;24468;52.128;9.278;2023-08-24T05:05:36;100911.38;;;17.53;100.00
38718;BME280;24468;52.128;9.278;2023-08-24T05:08:04;100923.28;;;17.52;100.00
38718;BME280;24468;52.128;9.278;2023-08-24T05:10:33;100934.19;;;17.52;100.00
38718;BME280;24468;52.128;9.278;2023-08-24T05:12:59;100938.16;;;17.61;100.00
38718;BME280;24468;52.128;9.278;2023-08-24T05:15:25;100943.41;;;17.64;100.00
38718;BME280;24468;52.128;9.278;2023-08-24T05:17:51;100942.56;;;17.76;100.00
38718;BME280;24468;52.128;9.278;2023-08-24T05:20:20;100950.00;;;17.74;100.00
38718;BME280;24468;52.128;9.278;2023-08-24T05:22:47;100948.66;;;17.94;100.00
38718;BME280;24468;52.128;9.278;2023-08-24T05:25:12;100959.63;;;18.20;100.00
38718;BME280;24468;52.128;9.278;2023-08-24T05:27:39;100956.00;;;18.19;100.00
38718;BME280;24468;52.128;9.278;2023-08-24T05:30:06;100958.84;;;18.18;100.00
38718;BME280;24468;52.128;9.278;2023-08-24T05:32:31;100948.66;;;18.07;100.00
38718;BME280;24468;52.128;9.278;2023-08-24T05:34:57;100940.47;;;18.07;100.00
38718;BME280;24468;52.128;9.278;2023-08-24T05:37:23;100945.53;;;18.39;100.00
38718;BME280;24468;52.128;9.278;2023-08-24T05:39:49;100953.53;;;18.42;100.00
38718;BME280;24468;52.128;9.278;2023-08-24T05:42:14;100954.72;;;18.38;100.00
38718;BME280;24468;52.128;9.278;2023-08-24T05:44:40;100948.16;;;18.53;100.00
38718;BME280;24468;52.128;9.278;2023-08-24T05:47:05;100951.22;;;18.61;100.00
38718;BME280;24468;52.128;9.278;2023-08-24T05:49:32;100941.47;;;18.70;100.00
38718;BME280;24468;52.128;9.278;2023-08-24T05:51:57;100940.75;;;18.68;100.00
38718;BME280;24468;52.128;9.278;2023-08-24T05:54:23;100936.16;;;18.69;100.00
38718;BME280;24468;52.128;9.278;2023-08-24T05:56:48;100926.66;;;18.74;100.00
38718;BME280;24468;52.128;9.278;2023-08-24T05:59:14;100932.44;;;18.82;100.00
38718;BME280;24468;52.128;9.278;2023-08-24T06:01:41;100917.34;;;18.90;100.00
38718;BME280;24468;52.128;9.278;2023-08-24T06:04:09;100909.03;;;18.91;100.00
38718;BME280;24468;52.128;9.278;2023-08-24T06:06:35;100898.09;;;18.91;100.00
38718;BME280;24468;52.128;9.278;2023-08-24T06:09:01;100900.28;;;18.86;100.00
38718;BME280;24468;52.128;9.278;2023-08-24T06:11:30;100887.28;;;18.64;100.00
38718;BME280;24468;52.128;9.278;2023-08-24T06:13:55;100870.66;;;18.80;100.00
38718;BME280;24468;52.128;9.278;2023-08-24T06:16:21;100869.56;;;18.95;100.00
38718;BME280;24468;52.128;9.278;2023-08-24T06:18:46;100859.34;;;18.97;100.00
38718;BME280;24468;52.128;9.278;2023-08-24T06:21:12;100862.53;;;18.91;100.00
38718;BME280;24468;52.128;9.278;2023-08-24T06:23:41;100859.03;;;18.89;100.00
38718;BME280;24468;52.128;9.278;2023-08-24T06:26:07;100852.91;;;18.98;100.00
38718;BME280;24468;52.128;9.278;2023-08-24T06:28:33;100860.69;;;18.92;100.00
38718;BME280;24468;52.128;9.278;2023-08-24T06:31:00;100876.22;;;18.78;100.00
38718;BME280;24468;52.128;9.278;2023-08-24T06:33:33;100897.88;;;18.69;100.00
38718;BME280;24468;52.128;9.278;2023-08-24T06:35:59;100898.34;;;18.62;100.00
38718;BME280;24468;52.128;9.278;2023-08-24T06:38:25;100898.34;;;18.62;100.00
38718;BME280;24468;52.128;9.278;2023-08-24T06:40:51;100899.00;;;18.79;100.00
38718;BME280;24468;52.128;9.278;2023-08-24T06:43:16;100900.22;;;19.12;100.00
38718;BME280;24468;52.128;9.278;2023-08-24T06:45:43;100901.00;;;19.38;100.00
38718;BME280;24468;52.128;9.278;2023-08-24T06:48:09;100907.50;;;19.24;100.00
38718;BME280;24468;52.128;9.278;2023-08-24T06:50:35;100909.22;;;19.62;100.00
38718;BME280;24468;52.128;9.278;2023-08-24T06:53:03;100906.66;;;19.47;100.00
38718;BME280;24468;52.128;9.278;2023-08-24T06:55:29;100900.66;;;19.42;100.00
38718;BME280;24468;52.128;9.278;2023-08-24T06:57:55;100899.84;;;19.77;100.00
38718;BME280;24468;52.128;9.278;2023-08-24T07:00:21;100891.53;;;19.90;100.00
38718;BME280;24468;52.128;9.278;2023-08-24T07:02:48;100887.22;;;20.10;100.00
38718;BME280;24468;52.128;9.278;2023-08-24T07:05:14;100872.94;;;20.17;100.00
38718;BME280;24468;52.128;9.278;2023-08-24T07:07:40;100867.59;;;20.27;100.00
38718;BME280;24468;52.128;9.278;2023-08-24T07:10:09;100856.91;;;20.24;100.00
38718;BME280;24468;52.128;9.278;2023-08-24T07:12:35;100849.66;;;20.23;100.00
38718;BME280;24468;52.128;9.278;2023-08-24T07:15:01;100846.31;;;20.42;100.00
38718;BME280;24468;52.128;9.278;2023-08-24T07:17:27;100845.44;;;20.53;100.00
38718;BME280;24468;52.128;9.278;2023-08-24T07:19:53;100844.84;;;20.60;100.00
38718;BME280;24468;52.128;9.278;2023-08-24T07:22:19;100841.94;;;20.51;100.00
38718;BME280;24468;52.128;9.278;2023-08-24T07:24:45;100843.50;;;20.55;100.00
38718;BME280;24468;52.128;9.278;2023-08-24T07:27:10;100844.22;;;20.79;100.00
38718;BME280;24468;52.128;9.278;2023-08-24T07:29:36;100832.09;;;20.93;100.00
38718;BME280;24468;52.128;9.278;2023-08-24T07:32:01;100826.22;;;20.98;100.00
38718;BME280;24468;52.128;9.278;2023-08-24T07:34:28;100826.34;;;20.96;100.00
38718;BME280;24468;52.128;9.278;2023-08-24T07:36:54;100820.38;;;20.91;100.00
38718;BME280;24468;52.128;9.278;2023-08-24T07:39:20;100833.63;;;20.41;100.00
38718;BME280;24468;52.128;9.278;2023-08-24T07:41:45;100830.47;;;20.46;100.00
38718;BME280;24468;52.128;9.278;2023-08-24T07:44:11;100825.38;;;20.52;100.00
38718;BME280;24468;52.128;9.278;2023-08-24T07:46:39;100821.19;;;20.71;100.00
38718;BME280;24468;52.128;9.278;2023-08-24T07:49:05;100823.78;;;20.38;100.00
38718;BME280;24468;52.128;9.278;2023-08-24T07:51:33;100820.88;;;20.96;100.00
38718;BME280;24468;52.128;9.278;2023-08-24T07:53:58;100808.66;;;21.32;100.00
38718;BME280;24468;52.128;9.278;2023-08-24T07:56:24;100802.41;;;21.30;100.00
38718;BME280;24468;52.128;9.278;2023-08-24T07:58:49;100807.53;;;20.92;100.00
38718;BME280;24468;52.128;9.278;2023-08-24T08:01:15;100796.84;;;21.21;100.00
38718;BME280;24468;52.128;9.278;2023-08-24T08:03:40;100800.13;;;21.47;100.00
38718;BME280;24468;52.128;9.278;2023-08-24T08:06:06;100797.94;;;21.83;100.00
38718;BME280;24468;52.128;9.278;2023-08-24T08:08:31;100797.63;;;21.97;100.00
38718;BME280;24468;52.128;9.278;2023-08-24T08:11:01;100795.09;;;21.94;100.00
38718;BME280;24468;52.128;9.278;2023-08-24T08:13:28;100793.78;;;21.88;100.00
38718;BME280;24468;52.128;9.278;2023-08-24T08:16:04;100795.75;;;21.56;100.00
38718;BME280;24468;52.128;9.278;2023-08-24T08:18:31;100783.63;;;22.10;100.00
38718;BME280;24468;52.128;9.278;2023-08-24T08:20:56;100786.25;;;22.11;100.00
38718;BME280;24468;52.128;9.278;2023-08-24T08:23:22;100782.47;;;22.03;100.00
38718;BME280;24468;52.128;9.278;2023-08-24T08:25:48;100787.44;;;22.39;100.00
38718;BME280;24468;52.128;9.278;2023-08-24T08:28:13;100789.25;;;21.78;100.00
38718;BME280;24468;52.128;9.278;2023-08-24T08:30:39;100788.06;;;22.01;100.00
38718;BME280;24468;52.128;9.278;2023-08-24T08:33:04;100790.44;;;21.85;100.00
38718;BME280;24468;52.128;9.278;2023-08-24T08:35:30;100792.81;;;22.51;100.00
38718;BME280;24468;52.128;9.278;2023-08-24T08:37:55;100795.50;;;22.81;100.00
38718;BME280;24468;52.128;9.278;2023-08-24T08:40:21;100793.97;;;22.48;100.00
38718;BME280;24468;52.128;9.278;2023-08-24T08:42:51;100790.69;;;23.34;100.00
38718;BME280;24468;52.128;9.278;2023-08-24T08:45:18;100783.88;;;23.67;100.00
38718;BME280;24468;52.128;9.278;2023-08-24T08:47:49;100777.94;;;23.71;100.00
38718;BME280;24468;52.128;9.278;2023-08-24T08:50:15;100785.03;;;23.25;100.00
38718;BME280;24468;52.128;9.278;2023-08-24T08:52:41;100772.97;;;23.94;100.00
38718;BME280;24468;52.128;9.278;2023-08-24T08:55:07;100781.19;;;24.04;100.00
38718;BME280;24468;52.128;9.278;2023-08-24T08:57:35;100772.22;;;24.49;100.00
38718;BME280;24468;52.128;9.278;2023-08-24T09:00:02;100768.28;;;24.14;100.00
38718;BME280;24468;52.128;9.278;2023-08-24T09:02:29;100763.00;;;24.21;100.00
38718;BME280;24468;52.128;9.278;2023-08-24T09:04:56;100757.34;;;24.23;100.00
38718;BME280;24468;52.128;9.278;2023-08-24T09:07:22;100761.19;;;24.39;100.00
38718;BME280;24468;52.128;9.278;2023-08-24T09:09:48;100765.97;;;24.75;100.00
38718;BME280;24468;52.128;9.278;2023-08-24T09:12:15;100756.94;;;25.00;100.00
38718;BME280;24468;52.128;9.278;2023-08-24T09:14:41;100744.53;;;24.87;100.00
38718;BME280;24468;52.128;9.278;2023-08-24T09:17:06;100745.72;;;24.66;100.00
38718;BME280;24468;52.128;9.278;2023-08-24T09:19:33;100745.19;;;24.53;100.00
38718;BME280;24468;52.128;9.278;2023-08-24T09:22:02;100737.22;;;25.13;100.00
38718;BME280;24468;52.128;9.278;2023-08-24T09:24:35;100735.44;;;25.22;100.00
38718;BME280;24468;52.128;9.278;2023-08-24T09:27:16;100742.09;;;24.28;100.00
38718;BME280;24468;52.128;9.278;2023-08-24T09:29:42;100733.81;;;24.66;100.00
38718;BME280;24468;52.128;9.278;2023-08-24T09:32:08;100728.00;;;25.04;100.00
38718;BME280;24468;52.128;9.278;2023-08-24T09:34:36;100732.47;;;25.59;100.00
38718;BME280;24468;52.128;9.278;2023-08-24T09:37:02;100717.84;;;25.85;100.00
38718;BME280;24468;52.128;9.278;2023-08-24T09:39:30;100711.91;;;26.06;100.00
38718;BME280;24468;52.128;9.278;2023-08-24T09:42:00;100703.53;;;26.24;100.00
38718;BME280;24468;52.128;9.278;2023-08-24T09:44:28;100692.38;;;26.07;100.00
38718;BME280;24468;52.128;9.278;2023-08-24T09:46:54;100697.34;;;25.78;100.00
38718;BME280;24468;52.128;9.278;2023-08-24T09:49:20;100688.69;;;26.25;100.00
38718;BME280;24468;52.128;9.278;2023-08-24T09:51:46;100684.69;;;26.61;100.00
38718;BME280;24468;52.128;9.278;2023-08-24T09:54:11;100677.78;;;26.74;100.00
38718;BME280;24468;52.128;9.278;2023-08-24T09:56:40;100668.47;;;26.99;100.00
38718;BME280;24468;52.128;9.278;2023-08-24T10:01:37;100654.38;;;26.60;100.00
38718;BME280;24468;52.128;9.278;2023-08-24T10:04:05;100655.78;;;26.22;100.00
38718;BME280;24468;52.128;9.278;2023-08-24T10:06:32;100651.66;;;25.57;100.00
38718;BME280;24468;52.128;9.278;2023-08-24T10:09:02;100652.94;;;26.39;100.00
38718;BME280;24468;52.128;9.278;2023-08-24T10:11:36;100645.78;;;26.63;100.00
38718;BME280;24468;52.128;9.278;2023-08-24T10:14:27;100634.22;;;27.09;98.02
38718;BME280;24468;52.128;9.278;2023-08-24T10:16:55;100638.03;;;27.32;95.06
38718;BME280;24468;52.128;9.278;2023-08-24T10:19:22;100633.50;;;27.39;96.03
38718;BME280;24468;52.128;9.278;2023-08-24T10:21:49;100635.56;;;27.70;93.36
38718;BME280;24468;52.128;9.278;2023-08-24T10:24:16;100636.06;;;27.74;89.52
38718;BME280;24468;52.128;9.278;2023-08-24T10:26:42;100630.31;;;27.83;85.21
38718;BME280;24468;52.128;9.278;2023-08-24T10:29:08;100627.09;;;28.11;83.39
38718;BME280;24468;52.128;9.278;2023-08-24T10:31:35;100624.03;;;28.06;81.75
38718;BME280;24468;52.128;9.278;2023-08-24T10:34:04;100609.59;;;28.50;81.06
38718;BME280;24468;52.128;9.278;2023-08-24T10:36:31;100614.84;;;28.36;81.96
38718;BME280;24468;52.128;9.278;2023-08-24T10:38:56;100609.09;;;28.69;75.60
38718;BME280;24468;52.128;9.278;2023-08-24T10:41:26;100606.19;;;28.31;72.68
38718;BME280;24468;52.128;9.278;2023-08-24T10:44:04;100607.41;;;28.60;70.14
38718;BME280;24468;52.128;9.278;2023-08-24T10:46:35;100614.84;;;28.91;68.58
38718;BME280;24468;52.128;9.278;2023-08-24T10:49:04;100616.63;;;28.84;70.26
38718;BME280;24468;52.128;9.278;2023-08-24T10:51:29;100614.84;;;29.14;69.11
38718;BME280;24468;52.128;9.278;2023-08-24T10:53:59;100606.84;;;29.34;63.46
38718;BME280;24468;52.128;9.278;2023-08-24T10:56:52;100609.91;;;29.39;58.51
38718;BME280;24468;52.128;9.278;2023-08-24T10:59:22;100604.50;;;29.22;62.46
38718;BME280;24468;52.128;9.278;2023-08-24T11:01:55;100607.69;;;29.34;61.10
38718;BME280;24468;52.128;9.278;2023-08-24T11:04:21;100612.22;;;29.50;59.15
38718;BME280;24468;52.128;9.278;2023-08-24T11:06:57;100614.75;;;29.75;58.00
38718;BME280;24468;52.128;9.278;2023-08-24T11:09:24;100610.25;;;30.03;56.74
38718;BME280;24468;52.128;9.278;2023-08-24T11:12:03;100606.91;;;30.23;54.02
38718;BME280;24468;52.128;9.278;2023-08-24T11:14:31;100608.13;;;30.20;56.29
38718;BME280;24468;52.128;9.278;2023-08-24T11:17:16;100612.94;;;30.11;57.32
38718;BME280;24468;52.128;9.278;2023-08-24T11:19:53;100612.63;;;30.21;55.95
38718;BME280;24468;52.128;9.278;2023-08-24T11:22:20;100605.00;;;29.79;57.54
38718;BME280;24468;52.128;9.278;2023-08-24T11:24:47;100596.44;;;29.80;57.70
38718;BME280;24468;52.128;9.278;2023-08-24T11:27:12;100594.59;;;29.43;59.54
38718;BME280;24468;52.128;9.278;2023-08-24T11:29:38;100581.59;;;29.73;61.20
38718;BME280;24468;52.128;9.278;2023-08-24T11:32:04;100582.59;;;29.28;61.99
38718;BME280;24468;52.128;9.278;2023-08-24T11:34:30;100559.69;;;29.55;62.98
38718;BME280;24468;52.128;9.278;2023-08-24T11:36:56;100552.94;;;28.82;65.06
38718;BME280;24468;52.128;9.278;2023-08-24T11:39:22;100558.00;;;29.69;62.77
38718;BME280;24468;52.128;9.278;2023-08-24T11:42:05;100541.44;;;30.27;58.74
38718;BME280;24468;52.128;9.278;2023-08-24T11:44:45;100547.41;;;30.09;59.56
38718;BME280;24468;52.128;9.278;2023-08-24T11:47:12;100541.75;;;30.02;62.35
38718;BME280;24468;52.128;9.278;2023-08-24T11:49:38;100526.66;;;30.48;59.65
38718;BME280;24468;52.128;9.278;2023-08-24T11:52:03;100520.03;;;30.49;57.77
38718;BME280;24468;52.128;9.278;2023-08-24T11:54:32;100502.03;;;30.45;57.42
38718;BME280;24468;52.128;9.278;2023-08-24T11:56:58;100499.59;;;30.20;60.39
38718;BME280;24468;52.128;9.278;2023-08-24T11:59:24;100493.53;;;30.17;62.32
38718;BME280;24468;52.128;9.278;2023-08-24T12:01:50;100477.53;;;30.62;59.70
38718;BME280;24468;52.128;9.278;2023-08-24T12:04:17;100469.72;;;30.72;59.88
38718;BME280;24468;52.128;9.278;2023-08-24T12:06:43;100454.44;;;30.40;58.56
38718;BME280;24468;52.128;9.278;2023-08-24T12:09:08;100450.97;;;29.80;61.14
38718;BME280;24468;52.128;9.278;2023-08-24T12:11:38;100455.91;;;30.21;60.75
38718;BME280;24468;52.128;9.278;2023-08-24T12:14:05;100450.53;;;29.46;61.23
38718;BME280;24468;52.128;9.278;2023-08-24T12:16:33;100450.56;;;29.98;61.86
38718;BME280;24468;52.128;9.278;2023-08-24T12:19:00;100448.31;;;30.51;60.61
38718;BME280;24468;52.128;9.278;2023-08-24T12:21:28;100439.59;;;30.61;59.37
38718;BME280;24468;52.128;9.278;2023-08-24T12:24:05;100432.88;;;30.76;59.12
38718;BME280;24468;52.128;9.278;2023-08-24T12:26:32;100435.88;;;30.96;57.41
38718;BME280;24468;52.128;9.278;2023-08-24T12:29:06;100450.53;;;30.34;51.91
38718;BME280;24468;52.128;9.278;2023-08-24T12:31:36;100438.31;;;30.35;57.34
38718;BME280;24468;52.128;9.278;2023-08-24T12:34:05;100428.84;;;30.51;58.58
38718;BME280;24468;52.128;9.278;2023-08-24T12:36:33;100425.78;;;30.74;58.55
38718;BME280;24468;52.128;9.278;2023-08-24T12:38:59;100425.75;;;30.39;56.40
38718;BME280;24468;52.128;9.278;2023-08-24T12:41:24;100424.97;;;29.87;59.13
38718;BME280;24468;52.128;9.278;2023-08-24T12:43:53;100420.06;;;30.54;57.36
38718;BME280;24468;52.128;9.278;2023-08-24T12:46:18;100431.50;;;30.38;59.25
38718;BME280;24468;52.128;9.278;2023-08-24T12:48:44;100431.69;;;30.14;57.34
38718;BME280;24468;52.128;9.278;2023-08-24T12:51:09;100436.59;;;30.34;58.37